sensor_id;sensor_type;location;lat;lon;timestamp;P1;durP1;ratioP1;P2;durP2;ratioP2
8698;SDS011;4386;51.236;6.742;2023-09-19T00:00:12;16.00;;;6.27;;
8698;SDS011;4386;51.236;6.742;2023-09-19T00:01:29;8.47;;;5.03;;
8698;SDS011;4386;51.236;6.742;2023-09-19T00:02:34;12.97;;;5.87;;
8698;SDS011;4386;51.236;6.742;2023-09-19T00:03:41;9.40;;;5.97;;
8698;SDS011;4386;51.236;6.742;2023-09-19T00:04:46;10.27;;;4.87;;
8698;SDS011;4386;51.236;6.742;2023-09-19T00:05:53;12.10;;;5.17;;
8698;SDS011;4386;51.236;6.742;2023-09-19T00:06:58;12.53;;;5.20;;
8698;SDS011;4386;51.236;6.742;2023-09-19T00:08:06;10.80;;;5.10;;
8698;SDS011;4386;51.236;6.742;2023-09-19T00:09:09;18.83;;;5.40;;
8698;SDS011;4386;51.236;6.742;2023-09-19T00:10:13;9.87;;;6.17;;
8698;SDS011;4386;51.236;6.742;2023-09-19T00:11:20;15.70;;;5.80;;
8698;SDS011;4386;51.236;6.742;2023-09-19T00:12:28;15.63;;;6.57;;
8698;SDS011;4386;51.236;6.742;2023-09-19T00:13:32;12.43;;;5.77;;
8698;SDS011;4386;51.236;6.742;2023-09-19T00:14:38;18.10;;;7.10;;
8698;SDS011;4386;51.236;6.742;2023-09-19T00:15:43;11.83;;;5.03;;
8698;SDS011;4386;51.236;6.742;2023-09-19T00:16:53;14.97;;;6.23;;
8698;SDS011;4386;51.236;6.742;2023-09-19T00:17:57;14.07;;;5.23;;
8698;SDS011;4386;51.236;6.742;2023-09-19T00:19:02;11.37;;;5.73;;
8698;SDS011;4386;51.236;6.742;2023-09-19T00:20:05;13.00;;;5.50;;
8698;SDS011;4386;51.236;6.742;2023-09-19T00:21:15;14.47;;;6.43;;
8698;SDS011;4386;51.236;6.742;2023-09-19T00:22:18;9.20;;;5.37;;
8698;SDS011;4386;51.236;6.742;2023-09-19T00:23:22;10.87;;;5.07;;
8698;SDS011;4386;51.236;6.742;2023-09-19T00:24:27;10.50;;;5.10;;
8698;SDS011;4386;51.236;6.742;2023-09-19T00:25:32;9.83;;;5.70;;
8698;SDS011;4386;51.236;6.742;2023-09-19T00:26:36;8.87;;;5.10;;
8698;SDS011;4386;51.236;6.742;2023-09-19T00:27:41;16.07;;;5.50;;
8698;SDS011;4386;51.236;6.742;2023-09-19T00:28:45;10.67;;;5.50;;
8698;SDS011;4386;51.236;6.742;2023-09-19T00:29:50;13.40;;;6.00;;
8698;SDS011;4386;51.236;6.742;2023-09-19T00:30:55;14.83;;;6.03;;
8698;SDS011;4386;51.236;6.742;2023-09-19T00:31:59;11.17;;;5.60;;
8698;SDS011;4386;51.236;6.742;2023-09-19T00:33:03;8.20;;;5.23;;
8698;SDS011;4386;51.236;6.742;2023-09-19T00:34:10;10.97;;;5.60;;
8698;SDS011;4386;51.236;6.742;2023-09-19T00:35:13;10.93;;;5.40;;
8698;SDS011;4386;51.236;6.742;2023-09-19T00:36:17;8.27;;;5.60;;
8698;SDS011;4386;51.236;6.742;2023-09-19T00:37:21;9.97;;;5.47;;
8698;SDS011;4386;51.236;6.742;2023-09-19T00:38:25;10.27;;;5.50;;
8698;SDS011;4386;51.236;6.742;2023-09-19T00:39:29;11.07;;;5.70;;
8698;SDS011;4386;51.236;6.742;2023-09-19T00:40:34;8.43;;;4.87;;
8698;SDS011;4386;51.236;6.742;2023-09-19T00:41:39;14.80;;;5.63;;
8698;SDS011;4386;51.236;6.742;2023-09-19T00:42:43;11.03;;;5.50;;
8698;SDS011;4386;51.236;6.742;2023-09-19T00:43:47;8.60;;;5.50;;
8698;SDS011;4386;51.236;6.742;2023-09-19T00:44:53;9.43;;;5.10;;
8698;SDS011;4386;51.236;6.742;2023-09-19T00:45:56;10.50;;;5.37;;
8698;SDS011;4386;51.236;6.742;2023-09-19T00:47:03;15.13;;;5.87;;
8698;SDS011;4386;51.236;6.742;2023-09-19T00:48:06;9.57;;;5.50;;
8698;SDS011;4386;51.236;6.742;2023-09-19T00:49:12;7.70;;;5.33;;
8698;SDS011;4386;51.236;6.742;2023-09-19T00:50:17;17.40;;;5.70;;
8698;SDS011;4386;51.236;6.742;2023-09-19T00:51:24;9.07;;;5.80;;
8698;SDS011;4386;51.236;6.742;2023-09-19T00:52:28;9.57;;;5.90;;
8698;SDS011;4386;51.236;6.742;2023-09-19T00:53:32;10.63;;;5.50;;
8698;SDS011;4386;51.236;6.742;2023-09-19T00:54:36;7.40;;;5.17;;
8698;SDS011;4386;51.236;6.742;2023-09-19T00:55:40;7.80;;;6.23;;
8698;SDS011;4386;51.236;6.742;2023-09-19T00:56:46;7.00;;;5.03;;
8698;SDS011;4386;51.236;6.742;2023-09-19T00:57:53;9.60;;;4.97;;
8698;SDS011;4386;51.236;6.742;2023-09-19T00:58:59;11.10;;;5.90;;
8698;SDS011;4386;51.236;6.742;2023-09-19T01:00:04;11.90;;;5.37;;
8698;SDS011;4386;51.236;6.742;2023-09-19T01:01:17;10.90;;;5.07;;
8698;SDS011;4386;51.236;6.742;2023-09-19T01:02:22;16.33;;;5.60;;
8698;SDS011;4386;51.236;6.742;2023-09-19T01:03:25;9.33;;;5.97;;
8698;SDS011;4386;51.236;6.742;2023-09-19T01:04:29;11.50;;;5.20;;
8698;SDS011;4386;51.236;6.742;2023-09-19T01:05:34;11.53;;;6.30;;
8698;SDS011;4386;51.236;6.742;2023-09-19T01:06:38;7.93;;;4.70;;
8698;SDS011;4386;51.236;6.742;2023-09-19T01:07:42;10.90;;;6.20;;
8698;SDS011;4386;51.236;6.742;2023-09-19T01:08:48;15.57;;;5.30;;
8698;SDS011;4386;51.236;6.742;2023-09-19T01:09:51;8.10;;;5.60;;
8698;SDS011;4386;51.236;6.742;2023-09-19T01:10:59;10.33;;;5.57;;
8698;SDS011;4386;51.236;6.742;2023-09-19T01:12:07;7.03;;;4.83;;
8698;SDS011;4386;51.236;6.742;2023-09-19T01:13:16;9.73;;;4.93;;
8698;SDS011;4386;51.236;6.742;2023-09-19T01:14:28;7.50;;;5.20;;
8698;SDS011;4386;51.236;6.742;2023-09-19T01:15:40;15.50;;;5.93;;
8698;SDS011;4386;51.236;6.742;2023-09-19T01:16:53;10.90;;;5.30;;
8698;SDS011;4386;51.236;6.742;2023-09-19T01:18:08;10.37;;;5.50;;
8698;SDS011;4386;51.236;6.742;2023-09-19T01:19:25;8.10;;;4.90;;
8698;SDS011;4386;51.236;6.742;2023-09-19T01:20:53;10.73;;;5.30;;
8698;SDS011;4386;51.236;6.742;2023-09-19T01:22:07;7.93;;;5.53;;
8698;SDS011;4386;51.236;6.742;2023-09-19T01:23:23;8.03;;;5.97;;
8698;SDS011;4386;51.236;6.742;2023-09-19T01:24:52;13.97;;;6.60;;
8698;SDS011;4386;51.236;6.742;2023-09-19T01:26:15;9.00;;;6.30;;
8698;SDS011;4386;51.236;6.742;2023-09-19T01:27:45;12.23;;;6.10;;
8698;SDS011;4386;51.236;6.742;2023-09-19T01:29:13;14.80;;;6.60;;
8698;SDS011;4386;51.236;6.742;2023-09-19T01:30:35;11.70;;;6.50;;
8698;SDS011;4386;51.236;6.742;2023-09-19T01:31:43;15.63;;;6.37;;
8698;SDS011;4386;51.236;6.742;2023-09-19T01:32:47;15.00;;;7.87;;
8698;SDS011;4386;51.236;6.742;2023-09-19T01:33:55;20.70;;;7.30;;
8698;SDS011;4386;51.236;6.742;2023-09-19T01:35:02;16.87;;;7.70;;
8698;SDS011;4386;51.236;6.742;2023-09-19T01:36:07;11.30;;;7.47;;
8698;SDS011;4386;51.236;6.742;2023-09-19T01:37:11;14.23;;;7.53;;
8698;SDS011;4386;51.236;6.742;2023-09-19T01:38:16;17.83;;;7.90;;
8698;SDS011;4386;51.236;6.742;2023-09-19T01:39:19;10.60;;;7.37;;
8698;SDS011;4386;51.236;6.742;2023-09-19T01:40:23;12.30;;;7.43;;
8698;SDS011;4386;51.236;6.742;2023-09-19T01:41:37;9.77;;;6.93;;
8698;SDS011;4386;51.236;6.742;2023-09-19T01:42:49;12.50;;;7.30;;
8698;SDS011;4386;51.236;6.742;2023-09-19T01:43:58;10.97;;;6.70;;
8698;SDS011;4386;51.236;6.742;2023-09-19T01:45:09;11.20;;;7.30;;
8698;SDS011;4386;51.236;6.742;2023-09-19T01:46:18;10.03;;;6.80;;
8698;SDS011;4386;51.236;6.742;2023-09-19T01:47:30;12.00;;;6.90;;
8698;SDS011;4386;51.236;6.742;2023-09-19T01:48:38;10.70;;;7.23;;
8698;SDS011;4386;51.236;6.742;2023-09-19T01:49:50;10.20;;;7.53;;
8698;SDS011;4386;51.236;6.742;2023-09-19T01:51:03;14.80;;;7.97;;
8698;SDS011;4386;51.236;6.742;2023-09-19T01:52:11;10.60;;;6.73;;
8698;SDS011;4386;51.236;6.742;2023-09-19T01:53:19;16.17;;;8.70;;
8698;SDS011;4386;51.236;6.742;2023-09-19T01:54:31;17.50;;;7.70;;
8698;SDS011;4386;51.236;6.742;2023-09-19T01:55:41;12.77;;;6.60;;
8698;SDS011;4386;51.236;6.742;2023-09-19T01:56:53;14.03;;;7.47;;
8698;SDS011;4386;51.236;6.742;2023-09-19T01:58:05;15.37;;;8.00;;
8698;SDS011;4386;51.236;6.742;2023-09-19T01:59:13;10.60;;;8.00;;
8698;SDS011;4386;51.236;6.742;2023-09-19T02:00:18;15.63;;;7.33;;
8698;SDS011;4386;51.236;6.742;2023-09-19T02:01:27;11.83;;;7.17;;
8698;SDS011;4386;51.236;6.742;2023-09-19T02:02:31;16.60;;;7.80;;
8698;SDS011;4386;51.236;6.742;2023-09-19T02:03:37;14.50;;;7.43;;
8698;SDS011;4386;51.236;6.742;2023-09-19T02:04:43;14.40;;;6.93;;
8698;SDS011;4386;51.236;6.742;2023-09-19T02:05:48;12.37;;;8.50;;
8698;SDS011;4386;51.236;6.742;2023-09-19T02:06:52;10.23;;;6.83;;
8698;SDS011;4386;51.236;6.742;2023-09-19T02:07:57;17.33;;;8.23;;
8698;SDS011;4386;51.236;6.742;2023-09-19T02:09:01;15.13;;;8.67;;
8698;SDS011;4386;51.236;6.742;2023-09-19T02:10:06;13.83;;;8.33;;
8698;SDS011;4386;51.236;6.742;2023-09-19T02:11:12;12.73;;;8.27;;
8698;SDS011;4386;51.236;6.742;2023-09-19T02:12:17;16.20;;;8.87;;
8698;SDS011;4386;51.236;6.742;2023-09-19T02:13:20;9.70;;;7.63;;
8698;SDS011;4386;51.236;6.742;2023-09-19T02:14:27;13.63;;;8.97;;
8698;SDS011;4386;51.236;6.742;2023-09-19T02:15:32;15.00;;;9.07;;
8698;SDS011;4386;51.236;6.742;2023-09-19T02:16:38;12.40;;;8.70;;
8698;SDS011;4386;51.236;6.742;2023-09-19T02:17:42;11.53;;;7.60;;
8698;SDS011;4386;51.236;6.742;2023-09-19T02:18:47;17.30;;;8.40;;
8698;SDS011;4386;51.236;6.742;2023-09-19T02:19:52;12.60;;;8.23;;
8698;SDS011;4386;51.236;6.742;2023-09-19T02:20:57;13.53;;;9.20;;
8698;SDS011;4386;51.236;6.742;2023-09-19T02:22:00;11.83;;;8.10;;
8698;SDS011;4386;51.236;6.742;2023-09-19T02:23:10;12.00;;;8.60;;
8698;SDS011;4386;51.236;6.742;2023-09-19T02:24:14;16.87;;;8.40;;
8698;SDS011;4386;51.236;6.742;2023-09-19T02:25:19;10.30;;;8.77;;
8698;SDS011;4386;51.236;6.742;2023-09-19T02:26:22;14.93;;;8.70;;
8698;SDS011;4386;51.236;6.742;2023-09-19T02:27:29;13.37;;;7.87;;
8698;SDS011;4386;51.236;6.742;2023-09-19T02:28:33;13.57;;;8.47;;
8698;SDS011;4386;51.236;6.742;2023-09-19T02:29:38;15.03;;;8.50;;
8698;SDS011;4386;51.236;6.742;2023-09-19T02:30:42;14.50;;;8.50;;
8698;SDS011;4386;51.236;6.742;2023-09-19T02:31:47;12.03;;;7.60;;
8698;SDS011;4386;51.236;6.742;2023-09-19T02:32:50;13.70;;;7.70;;
8698;SDS011;4386;51.236;6.742;2023-09-19T02:33:57;14.00;;;8.40;;
8698;SDS011;4386;51.236;6.742;2023-09-19T02:35:02;14.70;;;8.50;;
8698;SDS011;4386;51.236;6.742;2023-09-19T02:36:28;13.27;;;8.33;;
8698;SDS011;4386;51.236;6.742;2023-09-19T02:37:47;10.80;;;8.13;;
8698;SDS011;4386;51.236;6.742;2023-09-19T02:39:02;13.87;;;8.40;;
8698;SDS011;4386;51.236;6.742;2023-09-19T02:40:08;12.87;;;8.47;;
8698;SDS011;4386;51.236;6.742;2023-09-19T02:41:23;16.70;;;9.30;;
8698;SDS011;4386;51.236;6.742;2023-09-19T02:42:27;13.07;;;9.30;;
8698;SDS011;4386;51.236;6.742;2023-09-19T02:43:31;10.83;;;8.10;;
8698;SDS011;4386;51.236;6.742;2023-09-19T02:44:36;10.50;;;8.03;;
8698;SDS011;4386;51.236;6.742;2023-09-19T02:45:40;12.03;;;8.10;;
8698;SDS011;4386;51.236;6.742;2023-09-19T02:46:45;17.03;;;8.47;;
8698;SDS011;4386;51.236;6.742;2023-09-19T02:47:51;23.27;;;8.00;;
8698;SDS011;4386;51.236;6.742;2023-09-19T02:48:54;12.47;;;8.00;;
8698;SDS011;4386;51.236;6.742;2023-09-19T02:49:58;14.10;;;8.33;;
8698;SDS011;4386;51.236;6.742;2023-09-19T02:51:01;11.83;;;8.20;;
8698;SDS011;4386;51.236;6.742;2023-09-19T02:52:06;13.50;;;7.50;;
8698;SDS011;4386;51.236;6.742;2023-09-19T02:53:09;13.43;;;8.00;;
8698;SDS011;4386;51.236;6.742;2023-09-19T02:54:14;15.00;;;8.43;;
8698;SDS011;4386;51.236;6.742;2023-09-19T02:55:18;17.90;;;7.93;;
8698;SDS011;4386;51.236;6.742;2023-09-19T02:56:24;11.70;;;6.60;;
8698;SDS011;4386;51.236;6.742;2023-09-19T02:57:27;12.90;;;8.20;;
8698;SDS011;4386;51.236;6.742;2023-09-19T02:58:31;13.53;;;8.37;;
8698;SDS011;4386;51.236;6.742;2023-09-19T02:59:37;16.13;;;8.40;;
8698;SDS011;4386;51.236;6.742;2023-09-19T03:00:43;12.30;;;8.00;;
8698;SDS011;4386;51.236;6.742;2023-09-19T03:01:55;11.47;;;7.60;;
8698;SDS011;4386;51.236;6.742;2023-09-19T03:03:02;12.20;;;8.17;;
8698;SDS011;4386;51.236;6.742;2023-09-19T03:04:14;16.30;;;8.67;;
8698;SDS011;4386;51.236;6.742;2023-09-19T03:05:22;13.53;;;8.10;;
8698;SDS011;4386;51.236;6.742;2023-09-19T03:06:28;15.83;;;7.73;;
8698;SDS011;4386;51.236;6.742;2023-09-19T03:07:33;17.47;;;8.13;;
8698;SDS011;4386;51.236;6.742;2023-09-19T03:08:38;9.13;;;6.90;;
8698;SDS011;4386;51.236;6.742;2023-09-19T03:09:44;11.93;;;7.00;;
8698;SDS011;4386;51.236;6.742;2023-09-19T03:10:47;12.57;;;7.37;;
8698;SDS011;4386;51.236;6.742;2023-09-19T03:11:52;18.80;;;8.33;;
8698;SDS011;4386;51.236;6.742;2023-09-19T03:12:56;13.57;;;8.40;;
8698;SDS011;4386;51.236;6.742;2023-09-19T03:14:02;13.50;;;7.80;;
8698;SDS011;4386;51.236;6.742;2023-09-19T03:15:06;18.50;;;8.70;;
8698;SDS011;4386;51.236;6.742;2023-09-19T03:16:12;17.50;;;7.20;;
8698;SDS011;4386;51.236;6.742;2023-09-19T03:17:18;12.17;;;7.70;;
8698;SDS011;4386;51.236;6.742;2023-09-19T03:18:23;16.93;;;7.73;;
8698;SDS011;4386;51.236;6.742;2023-09-19T03:19:29;13.43;;;7.40;;
8698;SDS011;4386;51.236;6.742;2023-09-19T03:20:35;14.50;;;7.73;;
8698;SDS011;4386;51.236;6.742;2023-09-19T03:21:39;12.20;;;6.70;;
8698;SDS011;4386;51.236;6.742;2023-09-19T03:22:43;12.47;;;7.20;;
8698;SDS011;4386;51.236;6.742;2023-09-19T03:23:46;14.80;;;7.50;;
8698;SDS011;4386;51.236;6.742;2023-09-19T03:24:51;8.70;;;6.90;;
8698;SDS011;4386;51.236;6.742;2023-09-19T03:25:54;11.63;;;6.73;;
8698;SDS011;4386;51.236;6.742;2023-09-19T03:26:59;15.30;;;8.33;;
8698;SDS011;4386;51.236;6.742;2023-09-19T03:28:02;21.80;;;8.50;;
8698;SDS011;4386;51.236;6.742;2023-09-19T03:29:08;11.47;;;7.70;;
8698;SDS011;4386;51.236;6.742;2023-09-19T03:30:13;8.47;;;7.37;;
8698;SDS011;4386;51.236;6.742;2023-09-19T03:31:17;13.30;;;7.47;;
8698;SDS011;4386;51.236;6.742;2023-09-19T03:32:22;14.17;;;7.53;;
8698;SDS011;4386;51.236;6.742;2023-09-19T03:33:26;15.07;;;7.60;;
8698;SDS011;4386;51.236;6.742;2023-09-19T03:34:30;20.10;;;8.13;;
8698;SDS011;4386;51.236;6.742;2023-09-19T03:35:35;11.40;;;8.07;;
8698;SDS011;4386;51.236;6.742;2023-09-19T03:36:39;12.00;;;7.57;;
8698;SDS011;4386;51.236;6.742;2023-09-19T03:37:43;13.60;;;8.93;;
8698;SDS011;4386;51.236;6.742;2023-09-19T03:38:46;14.53;;;8.33;;
8698;SDS011;4386;51.236;6.742;2023-09-19T03:39:50;11.67;;;8.00;;
8698;SDS011;4386;51.236;6.742;2023-09-19T03:40:54;12.97;;;8.43;;
8698;SDS011;4386;51.236;6.742;2023-09-19T03:41:58;10.90;;;6.90;;
8698;SDS011;4386;51.236;6.742;2023-09-19T03:43:01;9.00;;;7.03;;
8698;SDS011;4386;51.236;6.742;2023-09-19T03:44:06;11.53;;;8.60;;
8698;SDS011;4386;51.236;6.742;2023-09-19T03:45:10;16.83;;;8.40;;
8698;SDS011;4386;51.236;6.742;2023-09-19T03:46:15;17.93;;;8.20;;
8698;SDS011;4386;51.236;6.742;2023-09-19T03:47:18;17.00;;;8.40;;
8698;SDS011;4386;51.236;6.742;2023-09-19T03:48:24;15.87;;;7.97;;
8698;SDS011;4386;51.236;6.742;2023-09-19T03:49:27;12.80;;;7.90;;
8698;SDS011;4386;51.236;6.742;2023-09-19T03:50:33;10.07;;;7.43;;
8698;SDS011;4386;51.236;6.742;2023-09-19T03:51:36;15.43;;;7.70;;
8698;SDS011;4386;51.236;6.742;2023-09-19T03:52:44;11.97;;;7.67;;
8698;SDS011;4386;51.236;6.742;2023-09-19T03:53:47;21.03;;;8.40;;
8698;SDS011;4386;51.236;6.742;2023-09-19T03:54:52;13.13;;;8.43;;
8698;SDS011;4386;51.236;6.742;2023-09-19T03:55:57;10.83;;;7.90;;
8698;SDS011;4386;51.236;6.742;2023-09-19T03:57:00;17.37;;;7.80;;
8698;SDS011;4386;51.236;6.742;2023-09-19T03:58:05;11.10;;;7.83;;
8698;SDS011;4386;51.236;6.742;2023-09-19T03:59:08;15.20;;;7.67;;
8698;SDS011;4386;51.236;6.742;2023-09-19T04:00:13;15.77;;;8.83;;
8698;SDS011;4386;51.236;6.742;2023-09-19T04:01:16;11.63;;;7.80;;
8698;SDS011;4386;51.236;6.742;2023-09-19T04:02:22;15.17;;;7.83;;
8698;SDS011;4386;51.236;6.742;2023-09-19T04:03:27;10.20;;;6.90;;
8698;SDS011;4386;51.236;6.742;2023-09-19T04:04:38;11.13;;;7.47;;
8698;SDS011;4386;51.236;6.742;2023-09-19T04:05:42;12.03;;;7.30;;
8698;SDS011;4386;51.236;6.742;2023-09-19T04:06:46;10.37;;;7.20;;
8698;SDS011;4386;51.236;6.742;2023-09-19T04:07:49;11.70;;;6.97;;
8698;SDS011;4386;51.236;6.742;2023-09-19T04:08:53;14.20;;;8.23;;
8698;SDS011;4386;51.236;6.742;2023-09-19T04:09:56;16.30;;;7.90;;
8698;SDS011;4386;51.236;6.742;2023-09-19T04:11:00;15.00;;;7.77;;
8698;SDS011;4386;51.236;6.742;2023-09-19T04:12:04;11.50;;;7.90;;
8698;SDS011;4386;51.236;6.742;2023-09-19T04:13:09;14.97;;;8.30;;
8698;SDS011;4386;51.236;6.742;2023-09-19T04:14:13;12.73;;;7.30;;
8698;SDS011;4386;51.236;6.742;2023-09-19T04:15:17;12.87;;;7.73;;
8698;SDS011;4386;51.236;6.742;2023-09-19T04:16:20;14.07;;;7.47;;
8698;SDS011;4386;51.236;6.742;2023-09-19T04:17:25;10.80;;;8.17;;
8698;SDS011;4386;51.236;6.742;2023-09-19T04:18:30;9.43;;;7.90;;
8698;SDS011;4386;51.236;6.742;2023-09-19T04:19:36;14.03;;;7.30;;
8698;SDS011;4386;51.236;6.742;2023-09-19T04:20:39;16.33;;;8.90;;
8698;SDS011;4386;51.236;6.742;2023-09-19T04:21:43;13.50;;;9.23;;
8698;SDS011;4386;51.236;6.742;2023-09-19T04:22:47;11.87;;;8.30;;
8698;SDS011;4386;51.236;6.742;2023-09-19T04:23:51;15.57;;;8.47;;
8698;SDS011;4386;51.236;6.742;2023-09-19T04:24:54;17.27;;;9.10;;
8698;SDS011;4386;51.236;6.742;2023-09-19T04:25:58;17.20;;;8.03;;
8698;SDS011;4386;51.236;6.742;2023-09-19T04:27:02;12.67;;;8.63;;
8698;SDS011;4386;51.236;6.742;2023-09-19T04:28:06;11.83;;;7.20;;
8698;SDS011;4386;51.236;6.742;2023-09-19T04:29:10;11.13;;;6.77;;
8698;SDS011;4386;51.236;6.742;2023-09-19T04:30:16;8.83;;;6.70;;
8698;SDS011;4386;51.236;6.742;2023-09-19T04:31:19;13.13;;;8.27;;
8698;SDS011;4386;51.236;6.742;2023-09-19T04:32:24;14.97;;;8.07;;
8698;SDS011;4386;51.236;6.742;2023-09-19T04:33:32;16.97;;;7.97;;
8698;SDS011;4386;51.236;6.742;2023-09-19T04:34:39;16.43;;;7.67;;
8698;SDS011;4386;51.236;6.742;2023-09-19T04:35:43;13.00;;;7.90;;
8698;SDS011;4386;51.236;6.742;2023-09-19T04:36:47;12.87;;;7.53;;
8698;SDS011;4386;51.236;6.742;2023-09-19T04:37:50;10.23;;;7.67;;
8698;SDS011;4386;51.236;6.742;2023-09-19T04:38:57;9.20;;;6.90;;
8698;SDS011;4386;51.236;6.742;2023-09-19T04:40:00;12.13;;;7.80;;
8698;SDS011;4386;51.236;6.742;2023-09-19T04:41:08;13.80;;;7.53;;
8698;SDS011;4386;51.236;6.742;2023-09-19T04:42:12;13.87;;;8.10;;
8698;SDS011;4386;51.236;6.742;2023-09-19T04:43:17;11.93;;;7.50;;
8698;SDS011;4386;51.236;6.742;2023-09-19T04:44:20;13.30;;;8.20;;
8698;SDS011;4386;51.236;6.742;2023-09-19T04:45:24;8.50;;;6.87;;
8698;SDS011;4386;51.236;6.742;2023-09-19T04:46:28;15.80;;;7.70;;
8698;SDS011;4386;51.236;6.742;2023-09-19T04:47:33;14.77;;;7.70;;
8698;SDS011;4386;51.236;6.742;2023-09-19T04:48:37;9.90;;;6.90;;
8698;SDS011;4386;51.236;6.742;2023-09-19T04:49:42;14.83;;;8.20;;
8698;SDS011;4386;51.236;6.742;2023-09-19T04:50:48;10.33;;;7.13;;
8698;SDS011;4386;51.236;6.742;2023-09-19T04:51:52;13.17;;;6.57;;
8698;SDS011;4386;51.236;6.742;2023-09-19T04:52:55;15.70;;;6.70;;
8698;SDS011;4386;51.236;6.742;2023-09-19T04:53:59;17.97;;;8.13;;
8698;SDS011;4386;51.236;6.742;2023-09-19T04:55:03;10.13;;;8.00;;
8698;SDS011;4386;51.236;6.742;2023-09-19T04:56:08;17.13;;;8.30;;
8698;SDS011;4386;51.236;6.742;2023-09-19T04:57:11;13.27;;;7.83;;
8698;SDS011;4386;51.236;6.742;2023-09-19T04:58:16;9.83;;;7.03;;
8698;SDS011;4386;51.236;6.742;2023-09-19T04:59:20;10.43;;;7.20;;
8698;SDS011;4386;51.236;6.742;2023-09-19T05:00:25;11.57;;;7.33;;
8698;SDS011;4386;51.236;6.742;2023-09-19T05:01:31;15.60;;;7.77;;
8698;SDS011;4386;51.236;6.742;2023-09-19T05:02:35;9.80;;;7.03;;
8698;SDS011;4386;51.236;6.742;2023-09-19T05:03:41;10.00;;;7.70;;
8698;SDS011;4386;51.236;6.742;2023-09-19T05:04:47;13.30;;;7.33;;
8698;SDS011;4386;51.236;6.742;2023-09-19T05:05:50;11.93;;;7.50;;
8698;SDS011;4386;51.236;6.742;2023-09-19T05:06:54;10.70;;;7.60;;
8698;SDS011;4386;51.236;6.742;2023-09-19T05:07:57;15.23;;;7.13;;
8698;SDS011;4386;51.236;6.742;2023-09-19T05:09:07;14.20;;;7.37;;
8698;SDS011;4386;51.236;6.742;2023-09-19T05:10:10;14.23;;;7.67;;
8698;SDS011;4386;51.236;6.742;2023-09-19T05:11:15;10.53;;;8.20;;
8698;SDS011;4386;51.236;6.742;2023-09-19T05:12:17;15.10;;;8.40;;
8698;SDS011;4386;51.236;6.742;2023-09-19T05:13:21;9.30;;;7.50;;
8698;SDS011;4386;51.236;6.742;2023-09-19T05:14:25;10.33;;;7.37;;
8698;SDS011;4386;51.236;6.742;2023-09-19T05:15:30;14.13;;;7.67;;
8698;SDS011;4386;51.236;6.742;2023-09-19T05:16:33;13.33;;;8.13;;
8698;SDS011;4386;51.236;6.742;2023-09-19T05:17:38;17.37;;;8.13;;
8698;SDS011;4386;51.236;6.742;2023-09-19T05:18:43;8.77;;;7.40;;
8698;SDS011;4386;51.236;6.742;2023-09-19T05:19:47;13.80;;;8.00;;
8698;SDS011;4386;51.236;6.742;2023-09-19T05:20:50;15.97;;;8.20;;
8698;SDS011;4386;51.236;6.742;2023-09-19T05:21:55;14.67;;;8.00;;
8698;SDS011;4386;51.236;6.742;2023-09-19T05:22:58;11.07;;;6.50;;
8698;SDS011;4386;51.236;6.742;2023-09-19T05:24:05;10.47;;;7.33;;
8698;SDS011;4386;51.236;6.742;2023-09-19T05:25:12;16.20;;;7.70;;
8698;SDS011;4386;51.236;6.742;2023-09-19T05:26:18;15.23;;;8.30;;
8698;SDS011;4386;51.236;6.742;2023-09-19T05:27:21;10.93;;;8.23;;
8698;SDS011;4386;51.236;6.742;2023-09-19T05:28:25;13.33;;;7.77;;
8698;SDS011;4386;51.236;6.742;2023-09-19T05:29:29;15.57;;;8.10;;
8698;SDS011;4386;51.236;6.742;2023-09-19T05:30:33;12.20;;;8.00;;
8698;SDS011;4386;51.236;6.742;2023-09-19T05:31:39;18.27;;;8.80;;
8698;SDS011;4386;51.236;6.742;2023-09-19T05:32:43;23.37;;;8.23;;
8698;SDS011;4386;51.236;6.742;2023-09-19T05:33:48;14.90;;;8.10;;
8698;SDS011;4386;51.236;6.742;2023-09-19T05:34:52;9.83;;;6.90;;
8698;SDS011;4386;51.236;6.742;2023-09-19T05:35:58;14.27;;;7.70;;
8698;SDS011;4386;51.236;6.742;2023-09-19T05:37:01;9.73;;;7.73;;
8698;SDS011;4386;51.236;6.742;2023-09-19T05:38:05;13.30;;;8.40;;
8698;SDS011;4386;51.236;6.742;2023-09-19T05:39:11;13.17;;;8.40;;
8698;SDS011;4386;51.236;6.742;2023-09-19T05:40:15;11.67;;;8.27;;
8698;SDS011;4386;51.236;6.742;2023-09-19T05:41:19;11.30;;;7.23;;
8698;SDS011;4386;51.236;6.742;2023-09-19T05:42:24;13.77;;;8.33;;
8698;SDS011;4386;51.236;6.742;2023-09-19T05:43:28;15.70;;;7.53;;
8698;SDS011;4386;51.236;6.742;2023-09-19T05:44:31;8.40;;;6.57;;
8698;SDS011;4386;51.236;6.742;2023-09-19T05:45:35;16.20;;;7.63;;
8698;SDS011;4386;51.236;6.742;2023-09-19T05:46:40;13.67;;;7.97;;
8698;SDS011;4386;51.236;6.742;2023-09-19T05:47:43;11.23;;;7.80;;
8698;SDS011;4386;51.236;6.742;2023-09-19T05:48:49;18.40;;;9.20;;
8698;SDS011;4386;51.236;6.742;2023-09-19T05:49:53;16.27;;;8.23;;
8698;SDS011;4386;51.236;6.742;2023-09-19T05:50:56;11.40;;;8.00;;
8698;SDS011;4386;51.236;6.742;2023-09-19T05:52:00;15.00;;;8.00;;
8698;SDS011;4386;51.236;6.742;2023-09-19T05:53:03;18.13;;;9.03;;
8698;SDS011;4386;51.236;6.742;2023-09-19T05:54:07;14.83;;;8.47;;
8698;SDS011;4386;51.236;6.742;2023-09-19T05:55:11;16.60;;;9.07;;
8698;SDS011;4386;51.236;6.742;2023-09-19T05:56:15;12.93;;;7.93;;
8698;SDS011;4386;51.236;6.742;2023-09-19T05:57:19;13.13;;;8.20;;
8698;SDS011;4386;51.236;6.742;2023-09-19T05:58:25;11.40;;;8.40;;
8698;SDS011;4386;51.236;6.742;2023-09-19T05:59:28;12.13;;;7.70;;
8698;SDS011;4386;51.236;6.742;2023-09-19T06:00:33;11.70;;;7.77;;
8698;SDS011;4386;51.236;6.742;2023-09-19T06:01:40;14.50;;;8.03;;
8698;SDS011;4386;51.236;6.742;2023-09-19T06:02:44;10.63;;;8.43;;
8698;SDS011;4386;51.236;6.742;2023-09-19T06:03:47;11.43;;;8.23;;
8698;SDS011;4386;51.236;6.742;2023-09-19T06:04:53;11.90;;;7.90;;
8698;SDS011;4386;51.236;6.742;2023-09-19T06:05:57;16.77;;;8.50;;
8698;SDS011;4386;51.236;6.742;2023-09-19T06:07:01;14.50;;;8.60;;
8698;SDS011;4386;51.236;6.742;2023-09-19T06:08:05;10.07;;;7.83;;
8698;SDS011;4386;51.236;6.742;2023-09-19T06:09:11;16.93;;;8.73;;
8698;SDS011;4386;51.236;6.742;2023-09-19T06:10:14;10.77;;;7.40;;
8698;SDS011;4386;51.236;6.742;2023-09-19T06:11:19;12.90;;;7.73;;
8698;SDS011;4386;51.236;6.742;2023-09-19T06:12:22;17.20;;;8.30;;
8698;SDS011;4386;51.236;6.742;2023-09-19T06:13:27;10.57;;;6.80;;
8698;SDS011;4386;51.236;6.742;2023-09-19T06:14:30;13.90;;;7.60;;
8698;SDS011;4386;51.236;6.742;2023-09-19T06:15:34;17.93;;;8.47;;
8698;SDS011;4386;51.236;6.742;2023-09-19T06:16:38;10.03;;;6.80;;
8698;SDS011;4386;51.236;6.742;2023-09-19T06:17:46;14.73;;;7.23;;
8698;SDS011;4386;51.236;6.742;2023-09-19T06:18:51;10.87;;;7.70;;
8698;SDS011;4386;51.236;6.742;2023-09-19T06:19:56;13.90;;;7.80;;
8698;SDS011;4386;51.236;6.742;2023-09-19T06:21:04;12.47;;;7.73;;
8698;SDS011;4386;51.236;6.742;2023-09-19T06:22:12;14.90;;;8.10;;
8698;SDS011;4386;51.236;6.742;2023-09-19T06:23:18;12.63;;;8.03;;
8698;SDS011;4386;51.236;6.742;2023-09-19T06:24:24;12.73;;;7.87;;
8698;SDS011;4386;51.236;6.742;2023-09-19T06:25:27;14.77;;;7.90;;
8698;SDS011;4386;51.236;6.742;2023-09-19T06:26:30;14.10;;;8.27;;
8698;SDS011;4386;51.236;6.742;2023-09-19T06:27:34;12.40;;;7.50;;
8698;SDS011;4386;51.236;6.742;2023-09-19T06:28:38;18.87;;;8.13;;
8698;SDS011;4386;51.236;6.742;2023-09-19T06:29:44;13.70;;;9.90;;
8698;SDS011;4386;51.236;6.742;2023-09-19T06:30:47;10.60;;;7.87;;
8698;SDS011;4386;51.236;6.742;2023-09-19T06:31:52;14.00;;;8.00;;
8698;SDS011;4386;51.236;6.742;2023-09-19T06:33:01;17.33;;;8.90;;
8698;SDS011;4386;51.236;6.742;2023-09-19T06:34:06;12.87;;;7.60;;
8698;SDS011;4386;51.236;6.742;2023-09-19T06:35:10;20.33;;;8.10;;
8698;SDS011;4386;51.236;6.742;2023-09-19T06:36:14;18.37;;;8.10;;
8698;SDS011;4386;51.236;6.742;2023-09-19T06:37:18;12.47;;;7.70;;
8698;SDS011;4386;51.236;6.742;2023-09-19T06:38:21;11.80;;;7.70;;
8698;SDS011;4386;51.236;6.742;2023-09-19T06:39:25;13.70;;;7.37;;
8698;SDS011;4386;51.236;6.742;2023-09-19T06:40:28;18.20;;;7.90;;
8698;SDS011;4386;51.236;6.742;2023-09-19T06:41:33;13.87;;;8.50;;
8698;SDS011;4386;51.236;6.742;2023-09-19T06:42:38;15.10;;;8.80;;